Time;durP1;ratioP1;P1;durP2;ratioP2;P2;SDS_P1;SDS_P2;PMS_P1;PMS_P2;Temp;Humidity;BMP_temperature;BMP_pressure;BME280_temperature;BME280_humidity;BME280_pressure;Samples;Min_cycle;Max_cycle;Signal;HPM_P1;HPM_P2
2023/02/27 00:01:44;;;;;;;10.55;4.13;;;-0.70;99.90;;;-144.05;59.38;57107.97;5033799;28;20068;-83
2023/02/27 00:04:10;;;;;;;10.07;4.45;;;-0.80;99.90;;;-144.05;59.77;57101.59;5036041;28;20159;-84
2023/02/27 00:06:36;;;;;;;13.23;4.70;;;-0.90;99.90;;;-144.05;59.92;57097.34;5050639;28;20052;-81
2023/02/27 00:09:02;;;;;;;15.40;4.65;;;-1.00;99.90;;;-144.05;60.18;57120.72;5058142;28;20032;-80
2023/02/27 00:11:28;;;;;;;6.85;4.30;;;-1.10;99.90;;;-144.05;60.42;57101.59;5041275;28;20025;-83
2023/02/27 00:13:54;;;;;;;15.77;5.43;;;-1.10;99.90;;;-144.05;60.74;57103.72;5040103;28;20029;-85
2023/02/27 00:16:20;;;;;;;12.15;4.85;;;-1.00;99.90;;;-144.05;61.01;57078.22;5019439;28;20536;-85
2023/02/27 00:18:46;;;;;;;11.98;4.72;;;-1.00;99.90;;;-144.05;60.71;57105.84;5043394;28;20040;-83
2023/02/27 00:21:12;;;;;;;9.63;4.30;;;-1.00;99.90;;;-144.05;60.65;57107.97;5038194;28;20030;-81
2023/02/27 00:23:38;;;;;;;8.13;4.15;;;-1.00;99.90;;;-144.05;60.60;57086.72;5039322;28;20129;-82
2023/02/27 00:26:04;;;;;;;10.88;4.82;;;-1.00;99.90;;;-144.05;60.80;57099.47;5020923;28;20030;-83
2023/02/27 00:28:30;;;;;;;8.50;4.03;;;-1.00;99.90;;;-144.05;60.95;57110.09;5024707;28;20041;-83
2023/02/27 00:30:55;;;;;;;10.13;4.55;;;-1.00;99.90;;;-144.05;60.52;57090.97;5035916;28;20036;-82
2023/02/27 00:33:21;;;;;;;8.25;4.40;;;-1.00;99.90;;;-144.05;60.75;57107.97;5035729;28;20049;-83
2023/02/27 00:36:00;;;;;;;13.07;4.60;;;-1.00;99.90;;;-144.05;60.72;57137.69;5035645;28;20057;-83
2023/02/27 00:38:27;;;;;;;9.27;4.57;;;-1.00;99.90;;;-144.05;61.08;57112.22;5036089;28;20041;-82
2023/02/27 00:40:53;;;;;;;13.13;5.65;;;-1.00;99.90;;;-144.05;61.29;57099.47;5017684;28;20500;-83
2023/02/27 00:43:19;;;;;;;7.55;4.50;;;-1.00;99.90;;;-144.05;61.40;57095.22;5017884;28;20446;-81
2023/02/27 00:45:47;;;;;;;9.98;4.45;;;-1.00;99.90;;;-144.05;61.46;57078.22;5025366;28;20064;-83
2023/02/27 00:48:14;;;;;;;9.70;4.22;;;-1.00;99.90;;;-144.05;61.48;57082.47;5024904;28;20108;-86
2023/02/27 00:50:41;;;;;;;10.65;4.70;;;-1.00;99.90;;;-144.05;61.40;57116.47;5045321;28;20033;-84
2023/02/27 00:53:06;;;;;;;9.05;4.88;;;-1.10;99.90;;;-144.05;62.25;57067.59;5029189;28;20057;-82
2023/02/27 00:55:32;;;;;;;9.02;5.05;;;-1.10;99.90;;;-144.05;62.23;57101.59;5018599;28;20026;-82
2023/02/27 00:57:58;;;;;;;11.88;4.95;;;-1.10;99.90;;;-144.05;62.20;57093.09;5034671;28;20029;-81
2023/02/27 01:00:25;;;;;;;14.88;5.78;;;-1.20;99.90;;;-144.05;62.41;57110.09;5033442;28;20092;-82
2023/02/27 01:02:51;;;;;;;12.32;4.15;;;-1.30;99.90;;;-144.05;62.87;57095.22;5035047;28;20040;-83
2023/02/27 01:05:17;;;;;;;9.30;4.95;;;-1.20;99.90;;;-144.05;63.55;57082.47;5032795;28;20041;-81
2023/02/27 01:07:43;;;;;;;8.80;4.55;;;-1.20;99.90;;;-144.05;63.03;57084.59;5032398;28;20052;-82
2023/02/27 01:10:11;;;;;;;10.23;4.57;;;-1.20;99.90;;;-144.05;62.92;57086.72;5032719;28;20029;-83
2023/02/27 01:12:38;;;;;;;7.28;4.75;;;-1.20;99.90;;;-144.05;62.86;57101.59;5031919;28;20029;-82
2023/02/27 01:15:07;;;;;;;9.27;4.50;;;-1.20;99.90;;;-144.05;63.13;57095.22;5034528;28;20037;-82
2023/02/27 01:17:33;;;;;;;8.10;4.95;;;-1.20;99.90;;;-144.05;63.40;57093.09;5033548;28;20033;-82
2023/02/27 01:19:59;;;;;;;15.93;4.97;;;-1.20;99.90;;;-144.05;63.65;57103.72;5016399;28;20036;-84
2023/02/27 01:22:25;;;;;;;15.20;4.93;;;-1.20;99.90;;;-144.05;63.82;57110.09;5033101;28;20033;-82
2023/02/27 01:24:51;;;;;;;11.07;4.90;;;-1.10;99.90;;;-144.05;64.00;57099.47;5034589;28;20056;-83
2023/02/27 01:27:17;;;;;;;13.98;5.63;;;-1.10;99.90;;;-144.05;63.79;57103.72;5034242;28;20033;-83
2023/02/27 01:29:43;;;;;;;13.35;5.13;;;-1.10;99.90;;;-144.05;63.46;57093.09;5032454;28;20037;-83
2023/02/27 01:32:09;;;;;;;10.90;4.85;;;-1.00;99.90;;;-144.05;63.75;57093.09;5033847;28;20036;-81
2023/02/27 01:34:34;;;;;;;7.50;4.40;;;-1.10;99.90;;;-144.05;63.61;57099.47;5016008;28;20048;-82
2023/02/27 01:37:00;;;;;;;9.63;4.97;;;-1.10;99.90;;;-144.05;63.58;57084.59;5016077;28;20036;-81
2023/02/27 01:39:26;;;;;;;7.20;4.53;;;-1.20;99.90;;;-144.05;63.72;57078.22;5033918;28;20033;-83
2023/02/27 01:41:53;;;;;;;7.22;4.50;;;-1.20;99.90;;;-144.05;63.84;57086.72;5033912;28;20112;-83
2023/02/27 01:44:18;;;;;;;8.20;4.43;;;-1.20;99.90;;;-144.05;64.13;57116.47;5033795;28;20040;-83
2023/02/27 01:46:44;;;;;;;12.32;5.13;;;-1.30;99.90;;;-144.05;64.04;57086.72;5032190;28;20041;-82
2023/02/27 01:49:31;;;;;;;9.77;5.32;;;-1.30;99.90;;;-144.05;64.15;57073.97;5032610;28;20035;-84
2023/02/27 01:52:08;;;;;;;7.00;4.60;;;-1.30;99.90;;;-144.05;64.21;57090.97;5032182;28;20029;-83
2023/02/27 01:54:40;;;;;;;7.45;4.65;;;-1.30;99.90;;;-144.05;64.38;57086.72;5034112;28;20073;-80
2023/02/27 01:57:08;;;;;;;13.90;5.47;;;-1.30;99.90;;;-144.05;64.20;57103.72;5032543;28;20034;-83
2023/02/27 01:59:40;;;;;;;12.52;5.72;;;-1.30;99.90;;;-144.05;64.62;57107.97;5032409;28;20121;-82
2023/02/27 02:02:23;;;;;;;10.10;5.25;;;-1.30;99.90;;;-144.05;64.66;57086.72;5032543;28;20025;-82
2023/02/27 02:04:52;;;;;;;9.75;4.95;;;-1.30;99.90;;;-144.05;64.61;57095.22;5032264;28;20029;-81
2023/02/27 02:07:20;;;;;;;10.73;4.90;;;-1.30;99.90;;;-144.05;64.29;57093.09;5031997;28;20128;-83
2023/02/27 02:09:56;;;;;;;10.25;5.15;;;-1.30;99.90;;;-144.05;64.40;57118.59;5033063;28;20033;-84
2023/02/27 02:12:32;;;;;;;8.63;4.75;;;-1.30;99.90;;;-144.05;64.55;57097.34;5032293;28;20464;-82
2023/02/27 02:14:59;;;;;;;9.52;4.85;;;-1.30;99.90;;;-144.05;64.52;57103.72;5016031;28;20036;-83
2023/02/27 02:17:58;;;;;;;7.65;4.43;;;-1.30;99.90;;;-144.05;64.40;57097.34;5034094;28;20102;-84
2023/02/27 02:21:35;;;;;;;8.25;4.35;;;-1.30;99.90;;;-144.05;64.41;57093.09;5015846;28;20112;-81
2023/02/27 02:24:46;;;;;;;10.63;4.80;;;-1.30;99.90;;;-144.05;64.51;57090.97;5022027;28;20044;-81
2023/02/27 02:27:46;;;;;;;6.65;4.22;;;-1.30;99.90;;;-144.05;64.60;57116.47;5036453;28;20040;-82
2023/02/27 02:30:50;;;;;;;13.70;4.88;;;-1.30;99.90;;;-144.05;64.63;57082.47;5034284;28;20037;-82
2023/02/27 02:33:43;;;;;;;9.93;4.25;;;-1.30;99.90;;;-144.05;64.46;57073.97;5001903;28;20038;-83
2023/02/27 02:36:53;;;;;;;6.20;4.13;;;-1.30;99.90;;;-144.05;64.54;57122.84;5014880;28;20363;-83
2023/02/27 02:40:05;;;;;;;6.93;4.57;;;-1.20;99.90;;;-144.05;64.23;57095.22;4969386;28;20045;-84
2023/02/27 02:42:48;;;;;;;6.43;4.13;;;-1.10;99.90;;;-144.05;64.31;57105.84;5033166;28;20033;-82
2023/02/27 02:45:39;;;;;;;7.15;4.28;;;-1.10;99.90;;;-144.05;64.26;57056.97;5014813;28;20084;-84
2023/02/27 02:48:33;;;;;;;6.38;3.67;;;-1.10;99.90;;;-144.05;64.45;57101.59;5032568;28;20056;-83
2023/02/27 02:51:18;;;;;;;9.40;3.63;;;-1.10;99.90;;;-144.05;64.12;57103.72;5032623;28;20025;-85
2023/02/27 02:54:10;;;;;;;5.38;3.60;;;-1.10;99.90;;;-144.05;63.94;57082.47;5014710;28;20037;-84
2023/02/27 02:57:02;;;;;;;9.27;4.03;;;-1.10;99.90;;;-144.05;64.08;57084.59;5014865;28;20030;-83
2023/02/27 02:59:55;;;;;;;6.65;4.07;;;-1.10;99.90;;;-144.05;63.97;57103.72;5032616;28;20030;-82
2023/02/27 03:02:31;;;;;;;7.47;3.55;;;-1.20;99.90;;;-144.05;64.33;57122.84;5031877;28;20057;-83
2023/02/27 03:05:08;;;;;;;6.40;4.00;;;-1.20;99.90;;;-144.05;64.36;57099.47;5031640;28;20049;-82
2023/02/27 03:07:44;;;;;;;5.85;3.90;;;-1.30;99.90;;;-144.05;64.24;57097.34;5031388;28;20039;-83
2023/02/27 03:10:48;;;;;;;6.28;4.07;;;-1.30;99.90;;;-144.05;64.38;57101.59;5032493;28;20052;-84
2023/02/27 03:13:33;;;;;;;8.43;4.82;;;-1.30;99.90;;;-144.05;64.39;57097.34;5032930;28;20038;-83
2023/02/27 03:16:40;;;;;;;7.55;4.78;;;-1.30;99.90;;;-144.05;64.47;57103.72;5015366;28;20049;-83
2023/02/27 03:19:37;;;;;;;9.10;4.75;;;-1.40;99.90;;;-144.05;64.67;57095.22;5015823;28;20052;-84
2023/02/27 03:22:21;;;;;;;9.63;5.13;;;-1.40;99.90;;;-144.05;65.06;57097.34;5054005;28;20025;-80
2023/02/27 03:24:58;;;;;;;8.82;4.72;;;-1.50;99.90;;;-144.05;65.39;57101.59;5036465;28;20388;-82
2023/02/27 03:27:39;;;;;;;9.55;4.75;;;-1.50;99.90;;;-144.05;65.52;57129.22;5052866;28;20170;-82
2023/02/27 03:30:18;;;;;;;11.30;4.93;;;-1.60;99.90;;;-144.05;65.51;57082.47;5015564;28;20116;-83
2023/02/27 03:33:16;;;;;;;8.85;4.68;;;-1.60;99.90;;;-144.05;65.60;57112.22;5031867;28;20395;-84
2023/02/27 03:36:27;;;;;;;8.65;5.22;;;-1.70;99.90;;;-144.05;65.84;57122.84;5034177;28;20025;-86
2023/02/27 03:39:21;;;;;;;14.10;4.55;;;-1.80;99.90;;;-144.05;66.41;57099.47;5045445;28;20452;-83
2023/02/27 03:42:29;;;;;;;8.50;5.00;;;-1.80;99.90;;;-144.05;66.46;57090.97;5044945;28;20035;-84
2023/02/27 03:45:23;;;;;;;12.30;4.97;;;-1.90;99.90;;;-144.05;66.78;57099.47;5045777;28;20025;-84
2023/02/27 03:47:50;;;;;;;10.98;4.35;;;-1.90;99.90;;;-144.05;67.10;57105.84;5028480;28;20033;-84
2023/02/27 03:50:17;;;;;;;8.65;4.20;;;-1.90;99.90;;;-144.05;67.19;57107.97;5047855;28;20029;-84
2023/02/27 03:52:45;;;;;;;11.38;4.30;;;-1.90;99.90;;;-144.05;67.02;57090.97;5023924;28;20029;-81
2023/02/27 03:55:19;;;;;;;9.98;4.90;;;-1.90;99.90;;;-144.05;67.24;57116.47;5021961;28;20133;-81
2023/02/27 03:57:50;;;;;;;7.32;4.38;;;-1.90;99.90;;;-144.05;67.01;57101.59;5040017;28;20055;-82
2023/02/27 04:00:23;;;;;;;16.80;5.65;;;-1.80;99.90;;;-144.05;67.11;57090.97;5022085;28;20022;-81
2023/02/27 04:02:54;;;;;;;12.95;4.43;;;-1.80;99.90;;;-144.05;67.12;57112.22;5023767;28;20104;-83
2023/02/27 04:05:22;;;;;;;12.68;4.28;;;-1.80;99.90;;;-144.05;67.05;57101.59;5022609;28;20021;-82
2023/02/27 04:08:43;;;;;;;6.95;4.38;;;-1.80;99.90;;;-144.05;67.08;57103.72;5038876;28;20512;-83
2023/02/27 04:12:01;;;;;;;12.02;4.40;;;-1.80;99.90;;;-144.05;67.27;57118.59;4959459;29;20043;-81
2023/02/27 04:15:00;;;;;;;10.63;4.68;;;-1.90;99.90;;;-144.05;67.81;57101.59;5040847;28;20079;-82
2023/02/27 04:17:48;;;;;;;10.15;5.45;;;-1.90;99.90;;;-144.05;67.63;57076.09;5020761;28;20033;-83
2023/02/27 04:20:34;;;;;;;13.70;4.10;;;-1.90;99.90;;;-144.05;67.37;57088.84;5038355;28;20025;-83
2023/02/27 04:23:38;;;;;;;9.93;4.20;;;-1.90;99.90;;;-144.05;67.53;57101.59;5039492;28;20057;-82
2023/02/27 04:26:30;;;;;;;9.20;4.53;;;-2.00;99.90;;;-144.05;67.46;57114.34;5047171;28;20030;-82
2023/02/27 04:29:53;;;;;;;11.88;5.13;;;-1.90;99.90;;;-144.05;67.90;57078.22;5054305;28;20048;-82
2023/02/27 04:32:43;;;;;;;11.27;4.38;;;-1.90;99.90;;;-144.05;67.68;57116.47;5017739;28;20033;-83
2023/02/27 04:35:22;;;;;;;12.10;5.10;;;-1.90;99.90;;;-144.05;67.78;57103.72;5039146;28;20101;-84
2023/02/27 04:38:05;;;;;;;11.95;4.95;;;-1.90;99.90;;;-144.05;68.05;57120.72;5021841;28;20029;-83
2023/02/27 04:40:54;;;;;;;13.05;5.93;;;-1.80;99.90;;;-144.05;67.76;57099.47;5021337;28;20038;-83
2023/02/27 04:43:25;;;;;;;9.38;5.07;;;-1.70;99.90;;;-144.05;67.44;57073.97;5037447;28;20029;-83
2023/02/27 04:45:57;;;;;;;12.05;4.95;;;-1.70;99.90;;;-144.05;67.40;57105.84;5021902;28;20026;-81
2023/02/27 04:48:37;;;;;;;13.00;5.97;;;-1.80;99.90;;;-144.05;67.51;57090.97;5026563;28;20075;-81
2023/02/27 04:51:15;;;;;;;16.75;5.97;;;-1.90;99.90;;;-144.05;67.74;57105.84;5045723;28;20093;-83
2023/02/27 04:54:10;;;;;;;13.80;5.43;;;-1.90;99.90;;;-144.05;67.93;57093.09;5045132;28;20151;-84
2023/02/27 04:56:55;;;;;;;12.70;5.82;;;-1.90;99.90;;;-144.05;67.78;57095.22;5026379;28;20030;-85
2023/02/27 04:59:34;;;;;;;13.82;5.95;;;-1.90;99.90;;;-144.05;67.87;57099.47;5041577;28;20025;-81
2023/02/27 05:02:10;;;;;;;12.90;6.53;;;-1.90;99.90;;;-144.05;67.68;57088.84;5036320;28;20037;-83
2023/02/27 05:04:42;;;;;;;11.82;6.30;;;-1.90;99.90;;;-144.05;67.90;57103.72;5034812;28;20026;-84
2023/02/27 05:07:18;;;;;;;11.18;6.00;;;-1.90;99.90;;;-144.05;67.71;57099.47;5016817;28;20036;-82
2023/02/27 05:10:45;;;;;;;10.07;6.25;;;-1.90;99.90;;;-144.05;67.93;57116.47;5032858;28;20424;-82
2023/02/27 05:13:27;;;;;;;11.02;5.95;;;-2.00;99.90;;;-144.05;67.96;57112.22;5018820;28;20478;-81
2023/02/27 05:16:25;;;;;;;12.02;5.80;;;-2.10;99.90;;;-144.05;68.08;57118.59;5018891;28;20029;-81
2023/02/27 05:18:53;;;;;;;22.45;6.25;;;-2.20;99.90;;;-144.05;68.32;57103.72;5033533;28;20030;-83
2023/02/27 05:21:54;;;;;;;11.43;6.03;;;-2.30;99.90;;;-144.05;68.45;57110.09;5033845;28;20049;-82
2023/02/27 05:24:46;;;;;;;9.75;5.75;;;-2.40;99.90;;;-144.05;68.93;57112.22;5036024;28;20382;-84
2023/02/27 05:27:29;;;;;;;12.23;5.72;;;-2.50;99.90;;;-144.05;69.06;57127.09;5018671;28;20547;-83
2023/02/27 05:31:02;;;;;;;16.70;5.82;;;-2.50;99.90;;;-144.05;69.31;57116.47;5023850;28;20029;-84
2023/02/27 05:33:51;;;;;;;11.52;6.15;;;-2.60;99.90;;;-144.05;69.65;57073.97;4984811;28;20031;-84
2023/02/27 05:36:35;;;;;;;11.90;5.80;;;-2.60;99.90;;;-144.05;69.94;57116.47;4967940;28;20031;-83
2023/02/27 05:39:09;;;;;;;7.85;5.43;;;-2.50;99.90;;;-144.05;69.84;57139.81;5009488;28;20543;-81
2023/02/27 05:41:52;;;;;;;9.82;5.55;;;-2.60;99.90;;;-144.05;70.06;57118.59;5034078;28;20618;-84
2023/02/27 05:44:37;;;;;;;12.38;5.63;;;-2.70;99.90;;;-144.05;70.24;57105.84;5033038;28;20025;-84
2023/02/27 05:47:22;;;;;;;10.25;5.88;;;-2.70;99.90;;;-144.05;70.54;57114.34;5033601;28;20034;-82
2023/02/27 05:50:11;;;;;;;13.18;6.05;;;-2.70;99.90;;;-144.05;71.03;57114.34;5033916;28;20029;-79
2023/02/27 05:52:41;;;;;;;11.23;5.50;;;-2.70;99.90;;;-144.05;70.95;57122.84;5032887;28;20041;-82
2023/02/27 05:55:51;;;;;;;15.20;6.10;;;-2.70;99.90;;;-144.05;71.48;57110.09;5016440;28;20030;-84
2023/02/27 05:58:41;;;;;;;18.83;6.03;;;-2.70;99.90;;;-144.05;71.81;57129.22;5032263;28;20045;-85
2023/02/27 06:01:11;;;;;;;11.75;6.00;;;-2.60;99.90;;;-144.05;71.93;57090.97;5035539;28;20026;-85
2023/02/27 06:03:40;;;;;;;12.90;6.50;;;-2.50;99.90;;;-144.05;71.60;57118.59;5016986;28;20059;-84
2023/02/27 06:06:15;;;;;;;10.60;5.57;;;-2.40;99.90;;;-144.05;71.28;57099.47;5035181;28;20033;-83
2023/02/27 06:08:43;;;;;;;11.38;5.90;;;-2.40;99.90;;;-144.05;71.28;57090.97;5017181;28;20080;-85
2023/02/27 06:11:10;;;;;;;11.90;6.28;;;-2.40;99.90;;;-144.05;71.11;57099.47;5035357;28;20030;-86
2023/02/27 06:13:36;;;;;;;13.23;6.22;;;-2.50;99.90;;;-144.05;71.02;57101.59;5033085;28;20109;-84
2023/02/27 06:16:02;;;;;;;13.85;6.10;;;-2.50;99.90;;;-144.05;71.45;57129.22;5034740;28;20057;-82
2023/02/27 06:18:28;;;;;;;12.68;6.05;;;-2.50;99.90;;;-144.05;71.15;57116.47;5033888;28;20029;-83
2023/02/27 06:20:54;;;;;;;16.00;6.22;;;-2.50;99.90;;;-144.05;71.25;57095.22;5035219;28;20025;-83
2023/02/27 06:23:20;;;;;;;12.63;5.85;;;-2.60;99.90;;;-144.05;71.38;57107.97;5037926;28;20251;-84
2023/02/27 06:25:47;;;;;;;19.05;7.00;;;-2.60;99.90;;;-144.05;71.32;57124.97;5042363;28;20033;-85
2023/02/27 06:28:13;;;;;;;13.75;6.13;;;-2.70;99.90;;;-144.05;71.22;57093.09;5041661;28;20095;-83
2023/02/27 06:30:40;;;;;;;13.15;6.43;;;-2.70;99.90;;;-144.05;71.68;57112.22;5035928;28;20037;-84
2023/02/27 06:33:06;;;;;;;18.33;7.18;;;-2.80;99.90;;;-144.05;71.63;57116.47;5038310;28;20030;-85
2023/02/27 06:35:32;;;;;;;15.00;7.97;;;-2.80;99.90;;;-144.05;71.67;57118.59;5035900;28;20053;-87
2023/02/27 06:37:58;;;;;;;15.93;6.50;;;-2.80;99.90;;;-144.05;72.04;57137.69;5036784;28;20400;-84
2023/02/27 06:40:24;;;;;;;15.15;6.47;;;-2.80;99.90;;;-144.05;72.11;57105.84;5035779;28;20029;-85
2023/02/27 06:42:50;;;;;;;12.55;6.60;;;-2.80;99.90;;;-144.05;72.53;57122.84;5035147;28;20036;-86
2023/02/27 06:45:17;;;;;;;14.13;6.68;;;-2.80;99.90;;;-144.05;72.32;57107.97;5035279;28;20029;-86
2023/02/27 06:47:43;;;;;;;15.00;5.82;;;-2.70;99.90;;;-144.05;72.59;57124.97;5040056;28;20021;-85
2023/02/27 06:50:13;;;;;;;10.23;6.25;;;-2.60;99.90;;;-144.05;73.11;57122.84;5020548;28;20098;-84
2023/02/27 06:52:40;;;;;;;14.25;6.60;;;-2.50;99.90;;;-144.05;73.09;57124.97;5039882;28;20435;-84
2023/02/27 06:55:09;;;;;;;11.63;6.45;;;-2.20;99.90;;;-144.05;72.60;57103.72;5037397;28;20032;-83
2023/02/27 06:57:35;;;;;;;8.57;6.25;;;-2.00;99.90;;;-144.05;71.70;57095.22;5037911;28;20026;-85
2023/02/27 07:00:01;;;;;;;16.50;5.88;;;-1.80;99.90;;;-144.05;70.67;57084.59;5036278;28;20307;-86
2023/02/27 07:02:27;;;;;;;9.50;5.45;;;-1.60;99.90;;;-144.05;69.70;57112.22;5036126;28;20030;-81
2023/02/27 07:04:53;;;;;;;8.68;5.97;;;-1.50;99.90;;;-144.05;69.46;57069.72;5037731;28;20158;-82
2023/02/27 07:07:19;;;;;;;7.72;5.18;;;-1.30;99.90;;;-144.05;68.67;57061.22;5037375;28;20037;-84
2023/02/27 07:09:45;;;;;;;9.52;5.40;;;-1.10;99.90;;;-144.05;67.77;57090.97;5036109;28;20037;-86
2023/02/27 07:12:11;;;;;;;11.45;5.28;;;-0.90;99.90;;;-144.05;67.17;57097.34;5035696;28;20030;-84
2023/02/27 07:14:37;;;;;;;9.63;5.05;;;-0.80;99.90;;;-144.05;66.30;57048.50;5035067;28;20052;-82
2023/02/27 07:17:04;;;;;;;10.27;5.22;;;-0.60;99.90;;;-144.05;65.17;57065.47;5034722;28;20452;-83
2023/02/27 07:19:34;;;;;;;11.30;4.70;;;-0.50;99.90;;;-144.05;64.81;57078.22;5033388;28;20025;-81
2023/02/27 07:22:00;;;;;;;8.35;4.35;;;-0.40;99.90;;;-144.05;64.24;57052.75;5032888;28;20021;-83
2023/02/27 07:24:26;;;;;;;9.90;5.18;;;-0.20;99.90;;;-144.05;63.63;57088.84;5016856;28;20481;-81
2023/02/27 07:26:52;;;;;;;7.43;4.80;;;0.00;99.90;;;-144.05;62.96;57086.72;5035189;28;20041;-84
2023/02/27 07:29:18;;;;;;;8.27;4.30;;;0.00;99.90;;;-144.05;62.40;57035.75;5022148;28;20048;-81
2023/02/27 07:31:44;;;;;;;11.70;4.70;;;0.10;99.90;;;-144.05;61.35;57046.38;5034360;28;20053;-81
2023/02/27 07:34:11;;;;;;;5.55;3.70;;;0.30;99.90;;;-144.05;60.04;57065.47;5017733;28;20056;-83
2023/02/27 07:36:38;;;;;;;10.05;4.18;;;0.40;99.90;;;-144.05;60.28;57076.09;5020803;28;20029;-83
2023/02/27 07:39:07;;;;;;;9.00;3.85;;;0.60;99.90;;;-144.05;58.60;57069.72;5035261;28;20395;-84
2023/02/27 07:41:33;;;;;;;9.30;4.03;;;0.80;99.90;;;-144.05;58.36;57056.97;5017521;28;20037;-83
2023/02/27 07:43:59;;;;;;;12.95;4.47;;;0.90;99.90;;;-144.05;58.59;57063.34;5033696;28;20053;-82
2023/02/27 07:46:26;;;;;;;7.13;3.78;;;1.10;99.90;;;-144.05;56.87;57016.63;5033853;28;20030;-84
2023/02/27 07:48:53;;;;;;;9.10;4.53;;;1.30;99.90;;;-144.05;56.88;57071.84;5034770;28;20025;-84
2023/02/27 07:51:20;;;;;;;8.15;4.15;;;1.50;99.90;;;-144.05;56.22;57020.88;5035483;28;20041;-83
2023/02/27 07:53:46;;;;;;;6.40;4.63;;;1.60;99.90;;;-144.05;56.19;57033.63;5034130;28;20037;-84
2023/02/27 07:56:12;;;;;;;6.90;4.25;;;1.50;99.90;;;-144.05;55.36;57061.22;5017513;28;20040;-83
2023/02/27 07:58:38;;;;;;;10.35;3.92;;;1.70;99.90;;;-144.05;54.87;57035.75;5034296;28;20105;-83
2023/02/27 08:01:04;;;;;;;8.32;3.85;;;1.80;99.90;;;-144.05;55.13;56989.00;5016911;28;20433;-82
2023/02/27 08:03:30;;;;;;;8.02;3.75;;;1.90;99.90;;;-144.05;55.00;57012.38;5017075;28;20036;-82
2023/02/27 08:05:56;;;;;;;6.20;3.80;;;1.90;99.90;;;-144.05;53.81;57012.38;5020391;28;20505;-83
2023/02/27 08:08:22;;;;;;;8.27;3.72;;;2.20;99.90;;;-144.05;53.61;57031.50;5034429;28;20034;-83
2023/02/27 08:10:49;;;;;;;8.20;4.03;;;2.20;99.90;;;-144.05;53.33;57044.25;5018539;28;20449;-83
2023/02/27 08:13:15;;;;;;;7.13;3.65;;;2.40;99.90;;;-144.05;53.11;57025.13;5037735;28;20078;-81
2023/02/27 08:15:41;;;;;;;10.20;3.85;;;2.40;99.90;;;-144.05;52.51;57027.25;5036269;28;20026;-83
2023/02/27 08:18:07;;;;;;;6.70;3.60;;;2.40;99.90;;;-144.05;52.15;57050.63;5034122;28;20165;-84
2023/02/27 08:20:33;;;;;;;12.77;3.35;;;2.60;99.90;;;-144.05;51.94;57037.88;5036294;28;20034;-80
2023/02/27 08:22:59;;;;;;;6.82;3.20;;;2.60;99.90;;;-144.05;51.33;57020.88;5058432;28;20068;-80
2023/02/27 08:25:25;;;;;;;8.23;3.50;;;2.80;99.90;;;-144.05;52.24;57035.75;5044735;28;20041;-83
2023/02/27 08:27:51;;;;;;;6.70;3.42;;;2.70;99.90;;;-144.05;51.86;57018.75;5042050;28;20083;-82
2023/02/27 08:30:17;;;;;;;5.38;3.40;;;2.90;99.90;;;-144.05;50.70;57016.63;5041986;28;20033;-81
2023/02/27 08:32:44;;;;;;;6.45;2.95;;;2.80;99.90;;;-144.05;51.44;57010.25;5023369;28;20026;-82
2023/02/27 08:35:11;;;;;;;7.60;3.70;;;2.80;99.90;;;-144.05;50.91;56991.13;5041606;28;20080;-81
2023/02/27 08:37:37;;;;;;;6.93;3.92;;;3.00;99.90;;;-144.05;50.27;57001.75;5023915;28;20040;-82
2023/02/27 08:40:09;;;;;;;9.52;4.35;;;3.10;99.90;;;-144.05;50.17;56991.13;5022129;28;20029;-82
2023/02/27 08:42:36;;;;;;;8.32;4.10;;;3.30;99.90;;;-144.05;49.50;56999.63;5022153;28;20404;-83
2023/02/27 08:45:02;;;;;;;7.57;3.35;;;3.30;99.90;;;-144.05;49.94;57020.88;5038951;28;20034;-82
2023/02/27 08:47:28;;;;;;;9.13;3.80;;;3.40;99.90;;;-144.05;48.80;57023.00;5022026;28;20025;-81
2023/02/27 08:49:55;;;;;;;5.82;4.15;;;3.60;99.90;;;-144.05;49.35;57014.50;5038041;28;20056;-83
2023/02/27 08:52:22;;;;;;;9.85;3.88;;;3.80;99.90;;;-144.05;49.07;56997.50;5021437;28;20034;-82
2023/02/27 08:54:48;;;;;;;7.38;4.15;;;3.80;99.90;;;-144.05;48.97;57010.25;5039195;28;20029;-82
2023/02/27 08:57:14;;;;;;;7.68;4.50;;;3.90;99.90;;;-144.05;47.60;57040.00;5041564;28;20020;-81
2023/02/27 08:59:40;;;;;;;6.18;4.20;;;4.20;99.90;;;-144.05;47.36;57010.25;5041348;28;20541;-85
2023/02/27 09:02:06;;;;;;;8.13;3.92;;;4.30;99.90;;;-144.05;46.32;56995.38;5038994;28;20029;-84
2023/02/27 09:04:32;;;;;;;8.30;3.90;;;4.40;99.90;;;-144.05;46.24;56982.66;5022288;28;20401;-84
2023/02/27 09:06:58;;;;;;;9.70;3.90;;;4.60;99.90;;;-144.05;46.86;57003.88;5022708;28;20037;-82
2023/02/27 09:09:23;;;;;;;8.93;3.78;;;4.50;99.90;;;-144.05;46.50;56991.13;5021900;28;20029;-82
2023/02/27 09:11:50;;;;;;;10.52;3.95;;;4.50;99.90;;;-144.05;45.59;56986.91;5040562;28;20074;-82
2023/02/27 09:14:17;;;;;;;10.90;5.13;;;4.70;99.90;;;-144.05;45.60;57006.00;5022621;28;20026;-84
2023/02/27 09:16:44;;;;;;;8.27;3.67;;;4.70;99.90;;;-144.05;45.68;56976.28;5038938;28;20033;-83
2023/02/27 09:19:13;;;;;;;9.65;3.22;;;4.80;99.90;;;-144.05;44.74;56961.41;5022007;28;20029;-82
2023/02/27 09:21:40;;;;;;;8.90;3.60;;;4.90;99.90;;;-144.05;46.66;56984.78;5040684;28;20477;-83
2023/02/27 09:24:07;;;;;;;8.60;3.92;;;4.60;99.90;;;-144.05;46.58;57003.88;5022228;28;20041;-84
2023/02/27 09:26:33;;;;;;;7.03;3.20;;;4.80;99.90;;;-144.05;45.28;56997.50;5022076;28;20026;-84
2023/02/27 09:28:58;;;;;;;6.93;3.20;;;4.80;99.90;;;-144.05;44.82;56972.03;5039687;28;20045;-83
2023/02/27 09:31:24;;;;;;;7.22;3.70;;;5.00;99.90;;;-144.05;44.70;57001.75;5038912;28;20480;-84
2023/02/27 09:33:50;;;;;;;8.20;2.88;;;5.00;99.90;;;-144.05;44.78;56982.66;5037755;28;20486;-83
2023/02/27 09:36:17;;;;;;;6.20;3.15;;;5.10;99.90;;;-144.05;43.96;56974.16;5039880;28;20040;-83
2023/02/27 09:38:43;;;;;;;6.55;3.20;;;5.20;99.90;;;-144.05;44.05;56989.00;5021869;28;20413;-83
2023/02/27 09:41:38;;;;;;;8.15;3.10;;;5.50;99.90;;;-144.05;43.72;56957.16;5022410;28;20030;-83
2023/02/27 09:44:32;;;;;;;6.93;3.10;;;5.80;99.90;;;-144.05;42.67;56991.13;5041337;28;20044;-85
2023/02/27 09:46:58;;;;;;;8.13;3.42;;;6.10;99.90;;;-144.05;42.90;56989.00;5013406;28;20111;-87
2023/02/27 09:49:46;;;;;;;3.92;2.78;;;6.30;99.90;;;-144.05;42.46;56963.53;5024258;28;20032;-83
2023/02/27 09:52:14;;;;;;;6.55;2.50;;;6.40;99.90;;;-144.05;42.53;56965.66;5044592;28;20041;-84
2023/02/27 09:54:40;;;;;;;5.88;2.70;;;5.80;99.90;;;-144.05;42.56;56974.16;5044620;28;20040;-84
2023/02/27 09:57:21;;;;;;;8.18;2.85;;;5.80;99.90;;;-144.05;43.80;56999.63;5020749;28;20468;-83
2023/02/27 10:00:05;;;;;;;5.22;2.70;;;5.90;99.90;;;-144.05;43.46;57008.13;5020836;28;20025;-83
2023/02/27 10:03:29;;;;;;;8.25;2.70;;;5.90;99.90;;;-144.05;43.38;56997.50;5038060;28;20060;-85
2023/02/27 10:06:25;;;;;;;5.45;2.40;;;5.90;99.90;;;-144.05;42.56;56972.03;5038290;28;20076;-83
2023/02/27 10:09:15;;;;;;;7.40;3.42;;;6.20;99.90;;;-144.05;42.67;56974.16;5040146;28;20438;-83
2023/02/27 10:12:53;;;;;;;6.13;2.55;;;6.20;99.90;;;-144.05;42.62;56967.78;5041313;28;20080;-83
2023/02/27 10:15:32;;;;;;;4.90;2.50;;;6.00;99.90;;;-144.05;41.98;56965.66;4980025;28;20084;-85
2023/02/27 10:18:20;;;;;;;6.82;2.60;;;6.20;99.90;;;-144.05;42.94;56959.28;4986573;28;20035;-82
2023/02/27 10:20:58;;;;;;;5.15;2.58;;;6.10;99.90;;;-144.05;42.75;56976.28;5017239;28;20043;-82
2023/02/27 10:24:14;;;;;;;4.70;2.55;;;6.30;99.90;;;-144.05;42.45;56963.53;5038632;28;20032;-82
2023/02/27 10:26:44;;;;;;;3.70;2.65;;;6.00;99.90;;;-144.05;42.40;56974.16;5037623;28;20033;-84
2023/02/27 10:29:35;;;;;;;6.45;2.40;;;5.70;99.90;;;-144.05;42.75;56991.13;5038567;28;20081;-83
2023/02/27 10:32:23;;;;;;;8.95;3.00;;;6.00;99.90;;;-144.05;41.79;56974.16;5039311;28;20025;-81
2023/02/27 10:35:26;;;;;;;5.07;3.00;;;6.30;99.90;;;-144.05;42.75;56976.28;5038140;28;20458;-83
2023/02/27 10:38:12;;;;;;;7.00;2.90;;;6.70;99.90;;;-144.05;44.01;56969.91;5019943;28;20026;-81
2023/02/27 10:40:41;;;;;;;7.88;3.10;;;6.50;99.90;;;-144.05;42.37;57001.75;5038311;28;20028;-84
2023/02/27 10:43:07;;;;;;;5.13;2.38;;;6.60;99.90;;;-144.05;42.27;56967.78;5038298;28;20060;-83